Time;durP1;ratioP1;P1;durP2;ratioP2;P2;SDS_P1;SDS_P2;PMS_P1;PMS_P2;Temp;Humidity;BMP_temperature;BMP_pressure;BME280_temperature;BME280_humidity;BME280_pressure;Samples;Min_cycle;Max_cycle;Signal;HPM_P1;HPM_P2
2022/07/04 00:00:10;;;;;;;2.20;0.70;;;23.10;99.90;;;;;;5065931;28;20067;-79
2022/07/04 00:02:41;;;;;;;1.73;0.63;;;23.10;99.90;;;;;;5060292;28;20049;-78
2022/07/04 00:05:10;;;;;;;4.95;0.90;;;23.10;99.90;;;;;;5057489;28;20052;-79
2022/07/04 00:07:38;;;;;;;3.28;0.70;;;23.00;99.90;;;;;;5064265;28;20479;-77
2022/07/04 00:10:06;;;;;;;4.90;1.05;;;23.00;99.90;;;;;;5060179;28;20052;-78
2022/07/04 00:12:32;;;;;;;2.53;0.70;;;23.00;99.90;;;;;;5064118;28;20533;-78
2022/07/04 00:15:00;;;;;;;3.78;0.80;;;23.00;99.90;;;;;;5062249;28;20552;-78
2022/07/04 00:17:27;;;;;;;1.50;0.80;;;23.00;99.90;;;;;;5062606;28;20399;-78
2022/07/04 00:19:54;;;;;;;2.58;1.02;;;22.90;99.90;;;;;;5071730;28;20052;-77
2022/07/04 00:22:20;;;;;;;3.22;1.20;;;23.00;99.90;;;;;;5055379;28;20105;-78
2022/07/04 00:24:47;;;;;;;2.58;0.57;;;23.00;99.90;;;;;;5064253;28;20493;-78
2022/07/04 00:27:15;;;;;;;1.33;0.80;;;23.00;99.90;;;;;;5062748;28;20395;-77
2022/07/04 00:29:41;;;;;;;1.02;0.70;;;23.00;99.90;;;;;;5061989;28;20469;-79
2022/07/04 00:32:09;;;;;;;4.60;0.98;;;23.00;99.90;;;;;;5064905;28;20049;-78
2022/07/04 00:34:35;;;;;;;3.42;0.80;;;23.00;99.90;;;;;;5056246;28;20136;-78
2022/07/04 00:37:03;;;;;;;5.78;0.80;;;23.00;99.90;;;;;;5064276;28;20087;-78
2022/07/04 00:39:30;;;;;;;3.15;0.88;;;23.00;99.90;;;;;;5058442;28;20473;-79
2022/07/04 00:41:57;;;;;;;2.55;0.77;;;23.00;99.90;;;;;;5062163;28;20502;-79
2022/07/04 00:44:24;;;;;;;4.00;0.70;;;23.00;99.90;;;;;;5063986;28;20076;-77
2022/07/04 00:46:50;;;;;;;7.80;1.80;;;23.00;99.90;;;;;;5059004;28;20105;-77
2022/07/04 00:49:18;;;;;;;1.52;0.60;;;22.90;99.90;;;;;;5064462;28;20101;-78
2022/07/04 00:51:45;;;;;;;3.10;0.75;;;22.80;99.90;;;;;;5062880;28;20594;-77
2022/07/04 00:54:15;;;;;;;0.98;0.80;;;22.80;99.90;;;;;;5061633;28;20052;-77
2022/07/04 00:56:43;;;;;;;3.20;0.60;;;22.70;99.90;;;;;;5064600;28;20070;-78
2022/07/04 00:59:11;;;;;;;5.38;1.10;;;22.70;99.90;;;;;;5060351;28;20132;-77
2022/07/04 01:01:38;;;;;;;4.97;1.00;;;22.60;99.90;;;;;;5063302;28;20044;-79
2022/07/04 01:04:06;;;;;;;2.67;0.90;;;22.50;99.90;;;;;;5064574;28;20052;-80
2022/07/04 01:06:33;;;;;;;2.50;0.70;;;22.50;99.90;;;;;;5061509;28;20526;-78
2022/07/04 01:09:01;;;;;;;3.25;0.80;;;22.50;99.90;;;;;;5063581;28;20072;-76
2022/07/04 01:11:27;;;;;;;2.72;0.80;;;22.50;99.90;;;;;;5062280;28;20491;-79
2022/07/04 01:13:54;;;;;;;2.22;0.70;;;22.50;99.90;;;;;;5062816;28;20135;-77
2022/07/04 01:16:23;;;;;;;3.38;0.90;;;22.50;99.90;;;;;;5064011;28;20127;-77
2022/07/04 01:18:52;;;;;;;2.38;0.80;;;22.50;99.90;;;;;;5060341;28;20127;-78
2022/07/04 01:21:19;;;;;;;2.17;0.90;;;22.50;99.90;;;;;;5065121;28;20120;-76
2022/07/04 01:23:46;;;;;;;3.78;1.00;;;22.50;99.90;;;;;;5065172;28;20093;-77
2022/07/04 01:26:13;;;;;;;3.67;0.90;;;22.50;99.90;;;;;;5064288;28;20053;-78
2022/07/04 01:28:40;;;;;;;4.43;1.55;;;22.50;99.90;;;;;;5060303;28;20100;-78
2022/07/04 01:31:07;;;;;;;4.07;1.02;;;22.50;99.90;;;;;;5057057;28;20132;-77
2022/07/04 01:33:34;;;;;;;6.20;1.20;;;22.50;99.90;;;;;;5063028;28;20073;-78
2022/07/04 01:36:00;;;;;;;2.63;0.88;;;22.40;99.90;;;;;;5062858;28;20045;-79
2022/07/04 01:38:27;;;;;;;3.22;0.90;;;22.30;99.90;;;;;;5061068;28;20502;-77
2022/07/04 01:40:54;;;;;;;3.08;0.90;;;22.30;99.90;;;;;;5064358;28;20072;-77
2022/07/04 01:43:21;;;;;;;2.40;0.93;;;22.20;99.90;;;;;;5057629;28;20048;-77
2022/07/04 01:45:47;;;;;;;2.60;0.93;;;22.10;99.90;;;;;;5062997;28;20103;-77
2022/07/04 01:48:14;;;;;;;1.55;1.00;;;22.20;99.90;;;;;;5062054;28;20478;-79
2022/07/04 01:50:41;;;;;;;1.55;0.80;;;22.20;99.90;;;;;;5063248;28;20052;-77
2022/07/04 01:53:08;;;;;;;8.45;1.10;;;22.30;99.90;;;;;;5067793;28;20064;-78
2022/07/04 01:55:34;;;;;;;2.60;1.13;;;22.30;99.90;;;;;;5063906;28;20076;-77
2022/07/04 01:58:02;;;;;;;3.80;0.80;;;22.30;99.90;;;;;;5066246;28;20052;-77
2022/07/04 02:03:15;;;;;;;2.08;1.00;;;22.30;99.90;;;;;;5062670;28;20549;-77
2022/07/04 02:05:45;;;;;;;3.50;1.10;;;22.40;99.90;;;;;;5065638;28;20044;-77
2022/07/04 02:08:12;;;;;;;1.25;0.80;;;22.40;99.90;;;;;;5066548;28;20464;-77
2022/07/04 02:10:38;;;;;;;4.50;0.90;;;22.40;99.90;;;;;;5062978;28;20060;-77
2022/07/04 02:13:05;;;;;;;2.92;0.80;;;22.40;99.90;;;;;;5066420;28;20512;-77
2022/07/04 02:15:40;;;;;;;3.72;0.80;;;22.50;99.90;;;;;;5065069;28;20052;-78
2022/07/04 02:18:10;;;;;;;3.40;0.98;;;22.50;99.90;;;;;;5063132;28;20494;-79
2022/07/04 02:20:37;;;;;;;3.13;1.02;;;22.50;99.90;;;;;;5066569;28;20070;-78
2022/07/04 02:23:04;;;;;;;2.40;0.82;;;22.50;99.90;;;;;;5065160;28;20051;-78
2022/07/04 02:25:32;;;;;;;1.98;0.80;;;22.60;99.90;;;;;;5064548;28;20476;-78
2022/07/04 02:27:58;;;;;;;2.00;0.80;;;22.50;99.90;;;;;;5066639;28;20199;-78
2022/07/04 02:30:25;;;;;;;3.58;0.90;;;22.50;99.90;;;;;;5063544;28;20685;-78
2022/07/04 02:32:52;;;;;;;1.48;0.90;;;22.50;99.90;;;;;;5064861;28;20068;-78
2022/07/04 02:35:19;;;;;;;1.92;0.93;;;22.50;99.90;;;;;;5065093;28;20079;-78
2022/07/04 02:37:46;;;;;;;4.03;1.23;;;22.50;99.90;;;;;;5063083;28;20136;-77
2022/07/04 02:40:13;;;;;;;1.98;0.95;;;22.60;99.90;;;;;;5060650;28;20045;-76
2022/07/04 02:42:39;;;;;;;5.25;0.90;;;22.50;99.90;;;;;;5066284;28;20501;-77
2022/07/04 02:45:07;;;;;;;6.60;1.33;;;22.50;99.90;;;;;;5065047;28;20536;-77
2022/07/04 02:47:34;;;;;;;2.80;0.82;;;22.50;99.90;;;;;;5066626;28;20127;-77
2022/07/04 02:50:03;;;;;;;3.67;1.40;;;22.40;99.90;;;;;;5065266;28;20096;-77
2022/07/04 02:52:29;;;;;;;4.68;2.28;;;22.40;99.90;;;;;;5063156;28;20080;-78
2022/07/04 02:54:57;;;;;;;2.95;1.98;;;22.30;99.90;;;;;;5059822;28;20053;-78
2022/07/04 02:57:24;;;;;;;7.47;1.10;;;22.30;99.90;;;;;;5064979;28;20132;-78
2022/07/04 02:59:52;;;;;;;2.60;1.10;;;22.20;99.90;;;;;;5064437;28;20076;-77
2022/07/04 03:02:18;;;;;;;3.17;1.08;;;22.20;99.90;;;;;;5062842;28;20079;-77
2022/07/04 03:04:45;;;;;;;4.72;1.23;;;22.30;99.90;;;;;;5066616;28;20506;-80
2022/07/04 03:07:12;;;;;;;3.83;1.20;;;22.20;99.90;;;;;;5064185;28;20049;-78
2022/07/04 03:09:39;;;;;;;2.55;1.10;;;22.00;99.90;;;;;;5064185;28;20088;-78
2022/07/04 03:12:06;;;;;;;3.08;1.20;;;22.00;99.90;;;;;;5063563;28;20088;-77
2022/07/04 03:14:33;;;;;;;4.28;1.48;;;21.90;99.90;;;;;;5061104;28;20464;-77
2022/07/04 03:17:00;;;;;;;4.40;1.58;;;21.80;99.90;;;;;;5064936;28;20044;-77
2022/07/04 03:19:27;;;;;;;5.55;0.93;;;21.80;99.90;;;;;;5061551;28;20111;-78
2022/07/04 03:21:53;;;;;;;3.25;1.00;;;21.90;99.90;;;;;;5063884;28;20075;-77
2022/07/04 03:24:20;;;;;;;3.95;0.82;;;21.90;99.90;;;;;;5063480;28;20059;-78
2022/07/04 03:26:47;;;;;;;3.50;0.80;;;21.90;99.90;;;;;;5061933;28;20053;-78
2022/07/04 03:29:13;;;;;;;2.67;0.70;;;21.90;99.90;;;;;;5063941;28;20480;-77
2022/07/04 03:31:40;;;;;;;4.90;1.00;;;21.80;99.90;;;;;;5054426;28;20083;-78
2022/07/04 03:34:07;;;;;;;3.17;0.82;;;21.80;99.90;;;;;;5062295;28;20103;-77
2022/07/04 03:36:34;;;;;;;2.15;1.10;;;21.80;99.90;;;;;;5061714;28;20041;-78
2022/07/04 03:39:01;;;;;;;5.68;0.90;;;21.70;99.90;;;;;;5070955;28;20049;-77
2022/07/04 03:41:27;;;;;;;2.05;0.95;;;21.70;99.90;;;;;;5060052;28;20124;-78
2022/07/04 03:43:54;;;;;;;4.97;1.00;;;21.60;99.90;;;;;;5061106;28;20049;-78
2022/07/04 03:46:21;;;;;;;3.50;0.82;;;21.60;99.90;;;;;;5062423;28;20076;-78
2022/07/04 03:48:47;;;;;;;3.00;0.85;;;21.50;99.90;;;;;;5061255;28;20434;-78
2022/07/04 03:51:14;;;;;;;1.33;0.73;;;21.50;99.90;;;;;;5060821;28;20128;-78
2022/07/04 03:53:42;;;;;;;5.78;0.90;;;21.50;99.90;;;;;;5063951;28;20127;-77
2022/07/04 03:56:09;;;;;;;2.58;0.90;;;21.50;99.90;;;;;;5056546;28;20395;-77
2022/07/04 03:58:36;;;;;;;2.33;0.80;;;21.40;99.90;;;;;;5063284;28;20072;-78
2022/07/04 04:01:03;;;;;;;4.40;0.80;;;21.40;99.90;;;;;;5062300;28;20048;-78
2022/07/04 04:06:15;;;;;;;1.48;0.90;;;21.40;99.90;;;;;;5060610;28;20459;-78
2022/07/04 04:08:42;;;;;;;3.55;0.85;;;21.40;99.90;;;;;;5064094;28;20090;-77
2022/07/04 04:11:09;;;;;;;1.27;0.70;;;21.40;99.90;;;;;;5060770;28;20447;-77
2022/07/04 04:13:35;;;;;;;1.58;0.80;;;21.40;99.90;;;;;;5063330;28;20072;-78
2022/07/04 04:16:03;;;;;;;3.30;0.70;;;21.40;99.90;;;;;;5061121;28;20132;-78
2022/07/04 04:18:29;;;;;;;2.92;0.82;;;21.30;99.90;;;;;;5061706;28;20406;-78
2022/07/04 04:20:56;;;;;;;3.08;0.65;;;21.30;99.90;;;;;;5062976;28;20094;-77
2022/07/04 04:23:23;;;;;;;1.73;0.70;;;21.30;99.90;;;;;;5064177;28;20090;-78
2022/07/04 04:25:49;;;;;;;1.70;0.70;;;21.30;99.90;;;;;;5057091;28;20076;-77
2022/07/04 04:28:21;;;;;;;2.17;0.80;;;21.20;99.90;;;;;;5061601;28;20053;-75
2022/07/04 04:30:49;;;;;;;5.72;0.90;;;21.30;99.90;;;;;;5062796;28;20048;-77
2022/07/04 04:33:16;;;;;;;1.40;0.70;;;21.40;99.90;;;;;;5060255;28;20094;-78
2022/07/04 04:35:43;;;;;;;3.35;0.90;;;21.40;99.90;;;;;;5056571;28;20045;-77
2022/07/04 04:38:09;;;;;;;1.35;1.00;;;21.40;99.90;;;;;;5062580;28;20127;-78
2022/07/04 04:40:36;;;;;;;3.97;1.33;;;21.40;99.90;;;;;;5061751;28;20132;-77
2022/07/04 04:43:03;;;;;;;2.05;1.55;;;21.50;99.90;;;;;;5060920;28;20423;-78
2022/07/04 04:45:29;;;;;;;3.15;1.10;;;21.50;99.90;;;;;;5063051;28;20071;-78
2022/07/04 04:47:56;;;;;;;3.30;0.75;;;21.60;99.90;;;;;;5063261;28;20083;-77
2022/07/04 04:50:23;;;;;;;3.70;0.85;;;21.70;99.90;;;;;;5060336;28;20139;-78
2022/07/04 04:52:50;;;;;;;1.48;0.77;;;21.70;99.90;;;;;;5062050;28;20041;-77
2022/07/04 04:55:17;;;;;;;5.03;1.30;;;21.80;99.90;;;;;;5062407;28;20118;-78
2022/07/04 04:57:44;;;;;;;6.32;1.13;;;21.80;99.90;;;;;;5059058;28;20148;-77
2022/07/04 05:00:11;;;;;;;2.60;1.02;;;21.80;99.90;;;;;;5059690;28;20055;-79
2022/07/04 05:02:38;;;;;;;8.32;0.98;;;21.80;99.90;;;;;;5063535;28;20049;-78
2022/07/04 05:05:06;;;;;;;2.30;0.93;;;21.90;99.90;;;;;;5069606;28;20045;-79
2022/07/04 05:07:33;;;;;;;3.10;1.10;;;21.90;99.90;;;;;;5061543;28;20057;-79
2022/07/04 05:10:00;;;;;;;5.68;0.98;;;21.90;99.90;;;;;;5063531;28;20044;-77
2022/07/04 05:12:27;;;;;;;8.38;1.13;;;21.90;99.90;;;;;;5056759;28;20071;-77
2022/07/04 05:14:55;;;;;;;1.83;0.80;;;21.90;99.90;;;;;;5062047;28;20131;-77
2022/07/04 05:17:22;;;;;;;2.97;0.93;;;21.90;99.90;;;;;;5061353;28;20055;-77
2022/07/04 05:19:48;;;;;;;3.30;1.30;;;21.90;99.90;;;;;;5060252;28;20072;-78
2022/07/04 05:22:15;;;;;;;3.63;1.00;;;21.80;99.90;;;;;;5063239;28;20045;-78
2022/07/04 05:24:42;;;;;;;5.40;1.40;;;21.70;99.90;;;;;;5059745;28;20513;-77
2022/07/04 05:27:09;;;;;;;4.88;1.30;;;21.70;99.90;;;;;;5065067;28;20466;-77
2022/07/04 05:29:37;;;;;;;2.50;0.90;;;21.80;99.90;;;;;;5065382;28;20053;-76
2022/07/04 05:32:06;;;;;;;2.97;1.30;;;21.80;99.90;;;;;;5059953;28;20049;-78
2022/07/04 05:34:33;;;;;;;2.75;1.50;;;21.80;99.90;;;;;;5065665;28;20041;-77
2022/07/04 05:37:01;;;;;;;1.83;0.75;;;21.70;99.90;;;;;;5062844;28;20087;-77
2022/07/04 05:39:28;;;;;;;3.85;0.98;;;21.70;99.90;;;;;;5064950;28;20147;-77
2022/07/04 05:41:55;;;;;;;1.67;0.80;;;21.70;99.90;;;;;;5065761;28;20516;-76
2022/07/04 05:44:21;;;;;;;2.50;0.90;;;21.60;99.90;;;;;;5063303;28;20549;-77
2022/07/04 05:46:48;;;;;;;1.98;0.80;;;21.50;99.90;;;;;;5058895;28;20088;-78
2022/07/04 05:49:15;;;;;;;2.75;0.90;;;21.40;99.90;;;;;;5063991;28;20128;-77
2022/07/04 05:51:41;;;;;;;4.68;0.93;;;21.40;99.90;;;;;;5060937;28;20049;-77
2022/07/04 05:54:08;;;;;;;2.38;1.25;;;21.40;99.90;;;;;;5065171;28;20060;-77
2022/07/04 05:56:35;;;;;;;3.33;0.90;;;21.50;99.90;;;;;;5062976;28;20350;-77
2022/07/04 05:59:02;;;;;;;2.83;0.90;;;21.60;99.90;;;;;;5066072;28;20402;-77
2022/07/04 06:01:29;;;;;;;2.88;0.93;;;21.70;99.90;;;;;;5071393;28;20073;-78
2022/07/04 06:03:55;;;;;;;3.63;1.00;;;21.70;99.90;;;;;;5062032;28;20052;-78
2022/07/04 06:06:22;;;;;;;3.90;1.00;;;21.80;99.90;;;;;;5061792;28;20520;-78
2022/07/04 06:08:49;;;;;;;3.88;0.88;;;21.90;99.90;;;;;;5062455;28;20077;-77
2022/07/04 06:11:17;;;;;;;2.78;0.90;;;22.00;99.90;;;;;;5066146;28;20075;-78
2022/07/04 06:13:44;;;;;;;2.10;0.80;;;22.10;99.90;;;;;;5063443;28;20484;-77
2022/07/04 06:16:11;;;;;;;1.70;0.98;;;22.20;99.90;;;;;;5063438;28;20471;-77
2022/07/04 06:18:38;;;;;;;2.42;1.30;;;22.40;99.90;;;;;;5067037;28;20441;-78
2022/07/04 06:21:04;;;;;;;1.48;0.70;;;22.50;99.90;;;;;;5062364;28;20091;-78
2022/07/04 06:23:32;;;;;;;1.73;1.00;;;22.60;99.90;;;;;;5065833;28;20521;-78
2022/07/04 06:25:58;;;;;;;6.25;1.10;;;22.70;99.90;;;;;;5063159;28;20139;-78
2022/07/04 06:28:26;;;;;;;3.60;0.80;;;22.70;99.90;;;;;;5063921;28;20067;-78
2022/07/04 06:31:13;;;;;;;2.03;0.85;;;22.80;99.90;;;;;;5060735;28;20049;-78
2022/07/04 06:36:25;;;;;;;2.60;0.90;;;22.80;99.90;;;;;;5058986;28;20107;-78
2022/07/04 06:38:52;;;;;;;4.32;0.90;;;22.80;99.90;;;;;;5058858;28;20138;-78
2022/07/04 06:41:19;;;;;;;1.48;0.80;;;22.70;99.90;;;;;;5063108;28;20040;-77
2022/07/04 06:43:45;;;;;;;6.65;1.10;;;22.70;99.90;;;;;;5062174;28;20111;-78
2022/07/04 06:46:12;;;;;;;4.75;0.80;;;22.70;99.90;;;;;;5061654;28;20132;-78
2022/07/04 06:48:39;;;;;;;3.33;0.93;;;22.70;99.90;;;;;;5062753;28;20044;-77
2022/07/04 06:51:06;;;;;;;1.20;0.80;;;22.80;99.90;;;;;;5063960;28;20425;-78
2022/07/04 06:53:32;;;;;;;4.65;1.00;;;22.90;99.90;;;;;;5059031;28;20045;-77
2022/07/04 06:55:59;;;;;;;1.77;0.88;;;23.00;99.90;;;;;;5065347;28;20044;-78
2022/07/04 06:58:26;;;;;;;0.82;0.52;;;23.00;99.90;;;;;;5063087;28;20178;-78
2022/07/04 07:00:53;;;;;;;3.90;1.77;;;23.00;99.90;;;;;;5063085;28;20136;-77
2022/07/04 07:03:20;;;;;;;6.25;1.13;;;23.00;99.90;;;;;;5063495;28;20045;-77
2022/07/04 07:05:46;;;;;;;1.73;0.70;;;22.90;99.90;;;;;;5062765;28;20053;-77
2022/07/04 07:08:30;;;;;;;2.10;1.17;;;23.00;99.90;;;;;;5056723;28;20107;-78
2022/07/04 07:11:12;;;;;;;1.67;1.10;;;23.00;99.90;;;;;;5051726;28;20041;-78
2022/07/04 07:13:41;;;;;;;3.65;0.98;;;22.90;99.90;;;;;;5061738;28;20055;-77
2022/07/04 07:16:08;;;;;;;2.03;0.95;;;22.60;99.90;;;;;;5064859;28;20493;-77
2022/07/04 07:18:35;;;;;;;2.88;1.00;;;22.40;99.90;;;;;;5065627;28;20080;-78
2022/07/04 07:21:03;;;;;;;3.75;0.98;;;22.20;99.90;;;;;;5064444;28;20048;-77
2022/07/04 07:23:30;;;;;;;10.02;2.30;;;22.30;99.90;;;;;;5062829;28;20110;-78
2022/07/04 07:25:57;;;;;;;2.35;1.10;;;22.10;99.90;;;;;;5062825;28;20048;-78
2022/07/04 07:28:24;;;;;;;6.65;1.33;;;22.20;99.90;;;;;;5060409;28;20495;-78
2022/07/04 07:30:50;;;;;;;3.97;0.80;;;22.30;99.90;;;;;;5068309;28;20136;-78
2022/07/04 07:33:17;;;;;;;2.88;1.13;;;22.30;99.90;;;;;;5069305;28;20502;-77
2022/07/04 07:35:44;;;;;;;1.88;0.88;;;22.40;99.90;;;;;;5063208;28;20049;-77
2022/07/04 07:38:10;;;;;;;5.28;0.95;;;22.50;99.90;;;;;;5064351;28;20487;-78
2022/07/04 07:40:37;;;;;;;2.38;1.00;;;22.70;99.90;;;;;;5063742;28;20144;-78
2022/07/04 07:43:04;;;;;;;2.90;0.90;;;22.70;99.90;;;;;;5061009;28;20518;-78
2022/07/04 07:45:30;;;;;;;3.05;1.00;;;22.80;99.90;;;;;;5061386;28;20494;-79
2022/07/04 07:47:57;;;;;;;3.53;1.17;;;22.80;99.90;;;;;;5064767;28;20057;-78
2022/07/04 07:50:24;;;;;;;1.77;1.00;;;22.70;99.90;;;;;;5062128;28;20044;-78
2022/07/04 07:52:52;;;;;;;1.58;1.00;;;22.70;99.90;;;;;;5063637;28;20131;-78
2022/07/04 07:55:18;;;;;;;3.22;0.93;;;22.70;99.90;;;;;;5060598;28;20145;-78
2022/07/04 07:57:45;;;;;;;2.97;1.38;;;22.70;99.90;;;;;;5063656;28;20076;-78
2022/07/04 08:00:15;;;;;;;2.42;0.85;;;22.80;99.90;;;;;;5061874;28;20072;-78
2022/07/04 08:05:47;;;;;;;2.72;1.00;;;22.90;99.90;;;;;;5057872;28;20107;-79
2022/07/04 08:08:14;;;;;;;2.95;1.00;;;22.90;99.90;;;;;;5062179;28;20052;-77
2022/07/04 08:10:41;;;;;;;3.88;1.15;;;22.90;99.90;;;;;;5062631;28;20080;-78
2022/07/04 08:13:07;;;;;;;7.07;1.48;;;22.90;99.90;;;;;;5059773;28;20266;-78
2022/07/04 08:15:34;;;;;;;6.30;1.33;;;22.90;99.90;;;;;;5070563;28;20044;-79
2022/07/04 08:18:01;;;;;;;4.07;1.20;;;22.90;99.90;;;;;;5060625;28;20135;-76
2022/07/04 08:20:28;;;;;;;3.58;1.10;;;22.80;99.90;;;;;;5062238;28;20099;-78
2022/07/04 08:22:55;;;;;;;4.18;1.10;;;22.80;99.90;;;;;;5062403;28;20437;-78
2022/07/04 08:25:21;;;;;;;7.85;1.25;;;22.70;99.90;;;;;;5061259;28;20136;-76
2022/07/04 08:27:48;;;;;;;10.93;1.73;;;22.70;99.90;;;;;;5063439;28;20054;-77
2022/07/04 08:30:16;;;;;;;6.55;1.30;;;22.60;99.90;;;;;;5059212;28;20049;-78
2022/07/04 08:32:43;;;;;;;3.60;1.13;;;22.60;99.90;;;;;;5062338;28;20080;-78
2022/07/04 08:35:09;;;;;;;4.03;1.23;;;22.60;99.90;;;;;;5069686;28;20069;-78
2022/07/04 08:37:36;;;;;;;6.00;1.25;;;22.50;99.90;;;;;;5060652;28;20068;-78
2022/07/04 08:40:07;;;;;;;2.55;1.40;;;22.50;99.90;;;;;;5059659;28;20458;-77
2022/07/04 08:42:38;;;;;;;4.03;1.50;;;22.60;99.90;;;;;;5062716;28;20068;-79
2022/07/04 08:47:35;;;;;;;4.65;1.70;;;22.50;99.90;;;;;;4990188;28;20416;-78
2022/07/04 08:50:24;;;;;;;5.40;1.40;;;22.60;99.90;;;;;;4987219;28;20081;-79
2022/07/04 08:52:59;;;;;;;5.88;1.30;;;22.70;99.90;;;;;;4980059;28;20512;-79
2022/07/04 08:58:31;;;;;;;3.35;1.27;;;22.60;99.90;;;;;;4990318;28;20047;-79
2022/07/04 09:01:14;;;;;;;6.70;1.73;;;22.60;99.90;;;;;;4989230;28;20054;-77
2022/07/04 09:03:43;;;;;;;7.15;1.90;;;22.70;99.90;;;;;;4992253;28;20050;-78
2022/07/04 09:06:11;;;;;;;2.45;1.20;;;22.70;99.90;;;;;;4989790;28;20050;-79
2022/07/04 09:08:39;;;;;;;5.60;1.60;;;22.70;99.90;;;;;;4991935;28;20161;-79
2022/07/04 09:11:06;;;;;;;3.97;1.40;;;22.70;99.90;;;;;;4992505;28;20514;-77
2022/07/04 09:13:33;;;;;;;3.28;1.45;;;22.70;99.90;;;;;;4975947;28;20084;-79
2022/07/04 09:16:01;;;;;;;5.32;1.23;;;22.70;99.90;;;;;;4991940;28;20567;-79
2022/07/04 09:18:31;;;;;;;3.92;1.23;;;22.80;99.90;;;;;;4990546;28;20051;-79
2022/07/04 09:21:02;;;;;;;4.50;1.10;;;22.80;99.90;;;;;;4992115;28;20118;-78
2022/07/04 09:23:41;;;;;;;3.65;1.13;;;22.90;99.90;;;;;;4988634;28;20524;-79
2022/07/04 09:26:21;;;;;;;3.88;1.10;;;23.00;99.90;;;;;;4991963;28;20074;-77
2022/07/04 09:28:53;;;;;;;1.35;0.98;;;23.10;99.90;;;;;;4989400;28;20453;-78
2022/07/04 09:31:22;;;;;;;5.65;1.20;;;23.40;99.90;;;;;;4991866;28;20086;-76
2022/07/04 09:33:52;;;;;;;5.07;1.35;;;23.60;99.90;;;;;;4988386;28;20054;-79
2022/07/04 09:36:21;;;;;;;1.67;1.25;;;23.80;99.90;;;;;;4991792;28;20133;-75
2022/07/04 09:39:24;;;;;;;3.17;1.23;;;24.00;99.90;;;;;;4991602;28;20150;-76
2022/07/04 09:41:52;;;;;;;3.67;1.45;;;24.20;99.90;;;;;;4912573;29;20075;-77
2022/07/04 09:44:19;;;;;;;4.38;1.27;;;24.30;99.90;;;;;;4976727;28;20086;-77
2022/07/04 09:46:46;;;;;;;4.63;1.10;;;24.40;99.90;;;;;;4991571;28;20092;-77
2022/07/04 09:49:13;;;;;;;3.17;1.10;;;24.30;99.90;;;;;;4986813;28;20556;-77
2022/07/04 09:51:46;;;;;;;4.45;1.33;;;24.40;99.90;;;;;;4991798;28;20043;-76
2022/07/04 09:54:13;;;;;;;4.53;1.20;;;24.60;99.90;;;;;;4991939;28;20051;-76
2022/07/04 09:56:41;;;;;;;3.03;1.20;;;24.80;99.90;;;;;;4991452;28;20129;-77
2022/07/04 09:59:08;;;;;;;4.00;1.20;;;24.90;99.90;;;;;;4991395;28;20082;-77
2022/07/04 10:01:35;;;;;;;2.53;1.10;;;24.90;99.90;;;;;;4987807;28;20070;-77
2022/07/04 10:04:03;;;;;;;2.30;1.17;;;25.00;99.90;;;;;;4991507;28;20500;-77
2022/07/04 10:06:33;;;;;;;2.03;1.30;;;25.00;99.90;;;;;;4991714;28;20473;-78
2022/07/04 10:09:18;;;;;;;3.10;1.10;;;25.00;99.90;;;;;;4991411;28;20080;-78
2022/07/04 10:11:46;;;;;;;5.07;1.10;;;24.90;99.90;;;;;;4990526;28;20084;-78
2022/07/04 10:14:14;;;;;;;4.70;1.30;;;24.90;99.90;;;;;;4995111;28;20468;-78
2022/07/04 10:16:41;;;;;;;6.22;1.10;;;24.80;99.90;;;;;;4991645;28;20424;-80
2022/07/04 10:19:09;;;;;;;3.90;1.27;;;24.80;99.90;;;;;;4994871;28;20046;-77
2022/07/04 10:21:36;;;;;;;5.38;1.05;;;24.70;99.90;;;;;;4994982;28;20504;-78
2022/07/04 10:24:03;;;;;;;2.30;1.50;;;24.60;99.90;;;;;;4994992;28;20570;-78
2022/07/04 10:26:31;;;;;;;4.40;1.30;;;24.60;99.90;;;;;;4994601;28;20097;-77
2022/07/04 10:28:58;;;;;;;6.93;1.40;;;24.40;99.90;;;;;;4994731;28;20491;-77
2022/07/04 10:31:28;;;;;;;2.65;1.20;;;24.40;99.90;;;;;;4994937;28;20112;-77
2022/07/04 10:33:57;;;;;;;4.72;1.02;;;24.40;99.90;;;;;;4994711;28;20054;-77
2022/07/04 10:36:29;;;;;;;7.93;1.20;;;24.40;99.90;;;;;;4994469;28;20559;-77
2022/07/04 10:39:00;;;;;;;5.70;1.30;;;24.40;99.90;;;;;;4994434;28;20042;-77
2022/07/04 10:41:29;;;;;;;2.72;1.00;;;24.20;99.90;;;;;;4994834;28;20057;-77
2022/07/04 10:44:13;;;;;;;4.82;1.10;;;24.30;99.90;;;;;;4994817;28;20047;-77
2022/07/04 10:46:45;;;;;;;4.20;1.20;;;24.40;99.90;;;;;;4994490;28;20488;-77
2022/07/04 10:49:15;;;;;;;1.42;0.98;;;24.40;99.90;;;;;;4991071;28;20046;-77
2022/07/04 10:52:02;;;;;;;2.80;1.15;;;24.40;99.90;;;;;;4994565;28;20508;-77
2022/07/04 10:54:31;;;;;;;4.15;0.98;;;24.50;99.90;;;;;;4992157;28;20522;-77
2022/07/04 10:57:13;;;;;;;1.67;1.20;;;24.60;99.90;;;;;;4994260;28;20042;-77
2022/07/04 10:59:42;;;;;;;2.25;1.10;;;24.80;99.90;;;;;;4991896;28;20105;-77
2022/07/04 11:02:09;;;;;;;1.73;1.30;;;25.00;99.90;;;;;;4993075;28;20077;-78
2022/07/04 11:04:58;;;;;;;3.25;1.35;;;25.20;99.90;;;;;;4992411;28;20050;-77
2022/07/04 11:07:33;;;;;;;3.33;1.30;;;25.40;99.90;;;;;;4992737;28;20081;-77
2022/07/04 11:10:12;;;;;;;3.40;1.45;;;25.70;99.90;;;;;;4991109;28;20052;-77
2022/07/04 11:12:55;;;;;;;2.38;0.82;;;25.90;99.90;;;;;;4994291;28;20434;-76
2022/07/04 11:15:28;;;;;;;3.53;1.15;;;26.10;99.90;;;;;;4993895;28;20456;-76
2022/07/04 11:18:08;;;;;;;1.83;1.00;;;26.20;99.90;;;;;;4990596;28;20046;-77
2022/07/04 11:20:38;;;;;;;3.80;1.20;;;26.10;99.90;;;;;;4993941;28;20100;-76
2022/07/04 11:23:10;;;;;;;3.37;1.30;;;26.10;99.90;;;;;;4990367;28;20047;-77
2022/07/04 11:25:42;;;;;;;3.47;1.02;;;26.30;99.90;;;;;;4993999;28;20722;-78
2022/07/04 11:28:29;;;;;;;1.05;0.90;;;26.30;99.90;;;;;;4991045;28;20137;-77
2022/07/04 11:31:13;;;;;;;2.78;1.17;;;26.40;99.90;;;;;;5006359;28;20054;-77
2022/07/04 11:33:41;;;;;;;3.13;1.10;;;26.50;99.90;;;;;;4993853;28;20145;-76
2022/07/04 11:36:09;;;;;;;4.47;1.38;;;26.60;99.90;;;;;;4993785;28;20054;-77
2022/07/04 11:38:55;;;;;;;6.75;1.20;;;26.70;99.90;;;;;;4991022;28;20070;-78
2022/07/04 11:47:25;;;;;;;1.85;0.98;;;26.80;99.90;;;;;;4990039;28;20081;-78
2022/07/04 11:49:54;;;;;;;2.15;1.00;;;26.90;99.90;;;;;;4993788;28;20141;-77
2022/07/04 11:52:48;;;;;;;4.75;1.00;;;26.90;99.90;;;;;;4994057;28;20054;-77
2022/07/04 11:55:34;;;;;;;3.45;1.00;;;26.90;99.90;;;;;;4989886;28;20050;-78
2022/07/04 11:58:01;;;;;;;1.77;1.10;;;26.90;99.90;;;;;;4993725;28;20053;-77
2022/07/04 12:00:34;;;;;;;4.05;1.05;;;26.80;99.90;;;;;;4993881;28;20137;-76
2022/07/04 12:03:01;;;;;;;3.47;1.27;;;26.80;99.90;;;;;;4993778;28;20050;-77
2022/07/04 12:05:29;;;;;;;2.45;1.00;;;26.70;99.90;;;;;;4993871;28;20058;-78
2022/07/04 12:07:55;;;;;;;2.83;0.90;;;26.80;99.90;;;;;;4993160;28;20077;-78
2022/07/04 12:10:42;;;;;;;3.83;1.20;;;26.70;99.90;;;;;;4990112;28;20046;-78
2022/07/04 12:13:15;;;;;;;2.60;1.10;;;26.70;99.90;;;;;;4993562;28;20144;-79
2022/07/04 12:15:47;;;;;;;2.05;1.10;;;26.70;99.90;;;;;;4992679;28;20519;-77
2022/07/04 12:18:18;;;;;;;6.03;1.00;;;26.60;99.90;;;;;;4989849;28;20050;-78
2022/07/04 12:20:46;;;;;;;5.20;2.30;;;26.60;99.90;;;;;;4993096;28;20124;-79
2022/07/04 12:23:13;;;;;;;2.15;1.00;;;26.60;99.90;;;;;;4993176;28;20078;-78
2022/07/04 12:25:40;;;;;;;1.52;1.02;;;26.70;99.90;;;;;;4993303;28;20524;-77
2022/07/04 12:28:11;;;;;;;3.28;1.27;;;26.70;99.90;;;;;;4992870;28;20535;-79
2022/07/04 12:30:47;;;;;;;2.60;0.90;;;26.80;99.90;;;;;;4992603;28;20460;-79
2022/07/04 12:33:17;;;;;;;3.92;0.90;;;27.00;99.90;;;;;;4989244;28;20061;-79
2022/07/04 12:35:47;;;;;;;2.03;0.90;;;26.90;99.90;;;;;;4990633;28;20047;-77
2022/07/04 12:38:22;;;;;;;3.58;1.00;;;26.90;99.90;;;;;;4992697;28;20092;-79
2022/07/04 12:41:00;;;;;;;4.68;0.90;;;26.80;99.90;;;;;;4986317;28;20427;-79
2022/07/04 12:43:46;;;;;;;3.35;1.15;;;26.70;99.90;;;;;;4992496;28;20050;-79
2022/07/04 12:46:33;;;;;;;4.00;1.00;;;26.70;99.90;;;;;;5005472;28;20511;-79
2022/07/04 12:49:17;;;;;;;4.60;1.30;;;26.60;99.90;;;;;;4992151;28;20054;-77
2022/07/04 12:51:44;;;;;;;3.72;1.45;;;26.40;99.90;;;;;;4992309;28;20157;-77
2022/07/04 12:54:11;;;;;;;3.33;1.27;;;26.40;99.90;;;;;;4992325;28;20050;-77
2022/07/04 12:56:41;;;;;;;2.78;1.13;;;26.40;99.90;;;;;;4992337;28;20392;-78
2022/07/04 12:59:15;;;;;;;6.00;0.88;;;26.50;99.90;;;;;;4988823;28;20086;-79
2022/07/04 13:01:44;;;;;;;4.22;1.25;;;26.60;99.90;;;;;;4992207;28;20129;-79
2022/07/04 13:04:12;;;;;;;4.88;1.17;;;26.80;99.90;;;;;;4992042;28;20561;-78
2022/07/04 13:06:39;;;;;;;3.55;1.23;;;27.00;99.90;;;;;;4988521;28;20088;-78
2022/07/04 13:09:07;;;;;;;2.67;0.88;;;26.90;99.90;;;;;;4991882;28;20050;-79
2022/07/04 13:14:21;;;;;;;2.17;0.90;;;27.10;99.90;;;;;;4989909;28;20129;-78
2022/07/04 13:16:48;;;;;;;2.22;0.90;;;27.20;99.90;;;;;;4992019;28;20175;-78
2022/07/04 13:19:17;;;;;;;2.05;0.88;;;27.10;99.90;;;;;;4987650;28;20053;-78
2022/07/04 13:21:44;;;;;;;4.20;0.90;;;27.20;99.90;;;;;;4988354;28;20046;-79